createdAt,value
2022-09-01T00:01:51.997Z,101651.13
2022-09-01T00:04:22.076Z,101662.03
2022-09-01T00:06:50.772Z,101653.28
2022-09-01T00:09:20.912Z,101662.38
2022-09-01T00:11:54.411Z,101661.19
2022-09-01T00:14:30.807Z,101659.13
2022-09-01T00:17:00.585Z,101657.94
2022-09-01T00:19:33.495Z,101654.97
2022-09-01T00:22:01.885Z,101651.13
2022-09-01T00:24:31.846Z,101645.16
2022-09-01T00:27:00.468Z,101635.97
2022-09-01T00:29:28.699Z,101662.44
2022-09-01T00:31:56.777Z,101660.38
2022-09-01T00:34:24.776Z,101657.69
2022-09-01T00:36:53.022Z,101659.19
2022-09-01T00:39:26.204Z,101663.22
2022-09-01T00:41:56.129Z,101665.75
2022-09-01T00:44:26.858Z,101661.47
2022-09-01T00:46:59.761Z,101643.19
2022-09-01T00:49:35.393Z,101655.94
2022-09-01T00:52:07.865Z,101663.41
2022-09-01T00:54:41.042Z,101654.63
2022-09-01T00:57:12.849Z,101634.41
2022-09-01T00:59:48.150Z,101658.81
2022-09-01T01:02:16.583Z,101652.72
2022-09-01T01:04:46.315Z,101655.72
2022-09-01T01:07:15.891Z,101641.69
2022-09-01T01:09:46.576Z,101651.06
2022-09-01T01:12:18.558Z,101650.91
2022-09-01T01:14:51.229Z,101646.16
2022-09-01T01:17:22.735Z,101644.25
2022-09-01T01:20:11.564Z,101647.22
2022-09-01T01:23:06.465Z,101642.31
2022-09-01T01:25:41.906Z,101645.00
2022-09-01T01:28:13.645Z,101651.69
2022-09-01T01:30:45.539Z,101649.75
2022-09-01T01:33:13.590Z,101649.47
2022-09-01T01:35:48.134Z,101648.56
2022-09-01T01:38:16.600Z,101659.13
2022-09-01T01:40:46.198Z,101650.50
2022-09-01T01:43:23.142Z,101647.97
2022-09-01T01:45:54.776Z,101664.19
2022-09-01T01:48:28.217Z,101662.44
2022-09-01T01:50:58.174Z,101658.41
2022-09-01T01:53:26.780Z,101660.03
2022-09-01T01:56:00.069Z,101655.88
2022-09-01T01:58:32.625Z,101664.06
2022-09-01T02:01:01.164Z,101659.16
2022-09-01T02:03:38.511Z,101666.75
2022-09-01T02:06:09.832Z,101663.75
2022-09-01T02:08:40.725Z,101660.19
2022-09-01T02:11:11.358Z,101650.50
2022-09-01T02:13:40.102Z,101665.53
2022-09-01T02:16:12.122Z,101670.47
2022-09-01T02:18:48.032Z,101668.50
2022-09-01T02:21:20.446Z,101657.78
2022-09-01T02:23:50.959Z,101670.56
2022-09-01T02:26:23.829Z,101661.06
2022-09-01T02:28:55.364Z,101654.38
2022-09-01T02:31:28.954Z,101657.63
2022-09-01T02:34:01.146Z,101667.47
2022-09-01T02:36:32.772Z,101658.22
2022-09-01T02:39:01.192Z,101655.13
2022-09-01T02:41:32.261Z,101662.97
2022-09-01T02:44:02.376Z,101663.44
2022-09-01T02:46:31.048Z,101659.69
2022-09-01T02:49:00.640Z,101657.44
2022-09-01T02:51:29.353Z,101652.81
2022-09-01T02:53:57.959Z,101645.53
2022-09-01T02:56:36.877Z,101636.31
2022-09-01T02:59:11.050Z,101641.06
2022-09-01T03:01:44.899Z,101641.78
2022-09-01T03:04:15.797Z,101638.22
2022-09-01T03:06:43.890Z,101605.41
2022-09-01T03:09:16.892Z,101643.00
2022-09-01T03:11:48.550Z,101644.63
2022-09-01T03:14:17.291Z,101635.06
2022-09-01T03:16:45.298Z,101635.06
2022-09-01T03:19:15.144Z,101640.13
2022-09-01T03:21:46.041Z,101633.31
2022-09-01T03:24:19.452Z,101630.63
2022-09-01T03:26:53.980Z,101638.22
2022-09-01T03:29:21.955Z,101638.38
2022-09-01T03:31:50.461Z,101645.50
2022-09-01T03:34:23.599Z,101643.72
2022-09-01T03:36:54.336Z,101624.97
2022-09-01T03:39:29.752Z,101640.59
2022-09-01T03:41:59.929Z,101642.06
2022-09-01T03:44:28.895Z,101645.31
2022-09-01T03:46:58.400Z,101646.09
2022-09-01T03:49:28.768Z,101640.69
2022-09-01T03:51:58.702Z,101640.53
2022-09-01T03:54:30.331Z,101650.47
2022-09-01T03:57:00.590Z,101642.50
2022-09-01T03:59:37.858Z,101643.63
2022-09-01T04:02:07.892Z,101621.91
2022-09-01T04:04:39.082Z,101646.00
2022-09-01T04:07:07.476Z,101641.56
2022-09-01T04:09:37.415Z,101642.13
2022-09-01T04:12:10.623Z,101640.31
2022-09-01T04:14:40.276Z,101640.19
2022-09-01T04:17:30.363Z,101639.88
2022-09-01T04:19:58.971Z,101643.13
2022-09-01T04:22:32.105Z,101641.38
2022-09-01T04:25:00.517Z,101641.03
2022-09-01T04:27:29.905Z,101643.56
2022-09-01T04:29:58.757Z,101645.38
2022-09-01T04:32:30.811Z,101637.03
2022-09-01T04:35:02.299Z,101640.75
2022-09-01T04:37:31.053Z,101634.63
2022-09-01T04:40:04.365Z,101640.88
2022-09-01T04:42:34.942Z,101642.34
2022-09-01T04:45:10.088Z,101642.19
2022-09-01T04:47:42.317Z,101638.44
2022-09-01T04:50:17.325Z,101642.00
2022-09-01T04:53:07.370Z,101647.81
2022-09-01T04:55:49.909Z,101645.72
2022-09-01T04:58:22.122Z,101623.53
2022-09-01T05:00:53.099Z,101654.81
2022-09-01T05:03:24.336Z,101652.03
2022-09-01T05:06:15.865Z,101640.25
2022-09-01T05:08:48.653Z,101651.91
2022-09-01T05:11:29.557Z,101635.97
2022-09-01T05:14:07.891Z,101657.88
2022-09-01T05:16:41.094Z,101653.44
2022-09-01T05:19:14.846Z,101652.88
2022-09-01T05:21:46.913Z,101655.00
2022-09-01T05:24:17.649Z,101648.69
2022-09-01T05:26:47.459Z,101622.63
2022-09-01T05:29:17.705Z,101660.34
2022-09-01T05:31:50.391Z,101657.25
2022-09-01T05:34:26.484Z,101650.84
2022-09-01T05:36:57.239Z,101661.47
2022-09-01T05:39:27.741Z,101643.91
2022-09-01T05:41:55.811Z,101652.28
2022-09-01T05:44:25.694Z,101657.81
2022-09-01T05:46:57.800Z,101655.16
2022-09-01T05:49:33.121Z,101650.38
2022-09-01T05:52:05.045Z,101653.03
2022-09-01T05:54:35.871Z,101653.34
2022-09-01T05:57:30.495Z,101658.03
2022-09-01T05:59:55.245Z,101663.97
2022-09-01T06:02:34.372Z,101650.13
2022-09-01T06:05:02.872Z,101659.22
2022-09-01T06:07:40.935Z,101654.38
2022-09-01T06:10:10.048Z,101658.09
2022-09-01T06:12:40.647Z,101648.81
2022-09-01T06:15:16.110Z,101656.69
2022-09-01T06:17:57.333Z,101664.59
2022-09-01T06:20:26.478Z,101629.44
2022-09-01T06:22:54.962Z,101658.09
2022-09-01T06:25:33.892Z,101658.19
2022-09-01T06:28:05.741Z,101659.09
2022-09-01T06:30:36.532Z,101666.63
2022-09-01T06:33:12.949Z,101666.31
2022-09-01T06:35:47.320Z,101665.41
2022-09-01T06:38:17.984Z,101667.78
2022-09-01T06:40:54.604Z,101661.97
2022-09-01T06:43:24.276Z,101662.34
2022-09-01T06:45:55.233Z,101662.38
2022-09-01T06:48:26.155Z,101660.16
2022-09-01T06:51:16.608Z,101665.81
2022-09-01T06:53:54.106Z,101674.38
2022-09-01T06:56:22.537Z,101668.91
2022-09-01T06:58:53.834Z,101672.66
2022-09-01T07:01:24.749Z,101675.06
2022-09-01T07:03:57.078Z,101673.22
2022-09-01T07:07:00.118Z,101679.28
2022-09-01T07:09:47.122Z,101689.13
2022-09-01T07:12:37.790Z,101685.72
2022-09-01T07:17:59.150Z,101682.84
2022-09-01T07:20:33.315Z,101686.44
2022-09-01T07:23:06.567Z,101683.31
2022-09-01T07:28:47.818Z,101691.63
2022-09-01T07:42:56.940Z,101692.78
2022-09-01T07:46:36.294Z,101686.03
2022-09-01T07:51:36.454Z,101685.19
2022-09-01T07:54:07.068Z,101687.00
2022-09-01T07:56:39.903Z,101684.34
2022-09-01T07:59:10.623Z,101694.19
2022-09-01T08:01:51.102Z,101689.66
2022-09-01T08:04:23.102Z,101697.28
2022-09-01T08:06:53.169Z,101700.09
2022-09-01T08:09:37.003Z,101699.09
2022-09-01T08:12:07.558Z,101691.88
2022-09-01T08:14:39.563Z,101684.75
2022-09-01T08:19:59.883Z,101692.66
2022-09-01T08:22:50.097Z,101691.88
2022-09-01T08:25:24.990Z,101692.84
2022-09-01T08:28:02.714Z,101683.66
2022-09-01T08:30:32.493Z,101688.22
2022-09-01T08:33:10.181Z,101688.97
2022-09-01T08:35:39.854Z,101684.75
2022-09-01T08:38:12.079Z,101691.72
2022-09-01T08:40:42.399Z,101690.72
2022-09-01T08:43:18.043Z,101678.19
2022-09-01T08:45:50.509Z,101693.94
2022-09-01T08:49:16.112Z,101688.97
2022-09-01T08:51:20.751Z,101688.84
2022-09-01T08:54:07.637Z,101689.44
2022-09-01T08:56:37.506Z,101685.47
2022-09-01T08:59:09.623Z,101689.84
2022-09-01T09:02:09.289Z,101686.81
2022-09-01T09:04:54.303Z,101689.53
2022-09-01T09:07:38.466Z,101688.00
2022-09-01T09:10:15.119Z,101658.69
2022-09-01T09:12:57.610Z,101682.66
2022-09-01T09:15:37.366Z,101683.44
2022-09-01T09:18:20.645Z,101679.25
2022-09-01T09:21:19.492Z,101682.25
2022-09-01T09:23:51.871Z,101671.69
2022-09-01T09:26:22.230Z,101675.03
2022-09-01T09:28:50.970Z,101677.28
2022-09-01T09:31:36.597Z,101673.06
2022-09-01T09:34:05.039Z,101667.66
2022-09-01T09:36:36.659Z,101670.91
2022-09-01T09:39:13.918Z,101662.44
2022-09-01T09:41:48.389Z,101661.44
2022-09-01T09:44:25.531Z,101668.47
2022-09-01T09:47:01.397Z,101655.13
2022-09-01T09:49:36.374Z,101653.81
2022-09-01T09:52:18.454Z,101663.69
2022-09-01T09:55:07.252Z,101663.22
2022-09-01T09:57:45.346Z,101656.47
2022-09-01T10:00:24.593Z,101659.78
2022-09-01T10:02:57.517Z,101649.94
2022-09-01T10:05:38.474Z,101651.25
2022-09-01T10:08:10.784Z,101643.78
2022-09-01T10:10:44.212Z,101639.69
2022-09-01T10:13:19.468Z,101632.53
2022-09-01T10:15:51.337Z,101634.97
2022-09-01T10:18:37.805Z,101635.63
2022-09-01T10:21:12.553Z,101636.38
2022-09-01T10:23:44.847Z,101638.69
2022-09-01T10:26:18.987Z,101632.59
2022-09-01T10:28:53.566Z,101628.03
2022-09-01T10:31:23.176Z,101627.97
2022-09-01T10:33:52.372Z,101628.50
2022-09-01T10:36:24.629Z,101629.91
2022-09-01T10:38:58.777Z,101623.81
2022-09-01T10:41:59.647Z,101618.47
2022-09-01T10:44:35.946Z,101622.69
2022-09-01T10:47:14.755Z,101630.72
2022-09-01T10:50:07.609Z,101626.56
2022-09-01T10:52:56.743Z,101617.25
2022-09-01T10:55:29.386Z,101612.25
2022-09-01T10:59:31.134Z,101608.28
2022-09-01T11:01:40.302Z,101616.56
2022-09-01T11:03:58.871Z,101596.47
2022-09-01T11:07:17.230Z,101601.72
2022-09-01T11:10:34.387Z,101596.31
2022-09-01T11:13:31.189Z,101599.28
2022-09-01T11:16:52.425Z,101597.00
2022-09-01T11:19:37.919Z,101599.06
2022-09-01T11:22:35.322Z,101598.25
2022-09-01T11:25:41.299Z,101596.56
2022-09-01T11:28:52.028Z,101587.56
2022-09-01T11:31:29.209Z,101596.06
2022-09-01T11:34:23.631Z,101589.34
2022-09-01T11:36:58.958Z,101579.09
2022-09-01T11:39:42.350Z,101566.09
2022-09-01T11:42:19.041Z,101586.84
2022-09-01T11:44:54.076Z,101583.03
2022-09-01T11:47:30.092Z,101583.94
2022-09-01T11:50:06.673Z,101575.72
2022-09-01T11:52:41.544Z,101581.03
2022-09-01T11:55:12.468Z,101572.16
2022-09-01T11:57:44.378Z,101573.84
2022-09-01T12:00:28.097Z,101575.34
2022-09-01T12:02:58.214Z,101576.97
2022-09-01T12:05:39.062Z,101574.59
2022-09-01T12:08:15.132Z,101581.41
2022-09-01T12:10:44.408Z,101570.06
2022-09-01T12:13:19.445Z,101573.53
2022-09-01T12:16:16.916Z,101569.00
2022-09-01T12:18:52.894Z,101565.22
2022-09-01T12:21:24.476Z,101571.94
2022-09-01T12:23:53.255Z,101566.56
2022-09-01T12:26:26.507Z,101568.88
2022-09-01T12:28:58.125Z,101577.84
2022-09-01T12:31:27.631Z,101556.47
2022-09-01T12:33:57.396Z,101561.97
2022-09-01T12:36:28.822Z,101567.91
2022-09-01T12:38:58.283Z,101564.59
2022-09-01T12:41:39.020Z,101554.84
2022-09-01T12:44:30.700Z,101556.28
2022-09-01T12:47:01.636Z,101527.13
2022-09-01T12:49:47.937Z,101551.06
2022-09-01T12:52:25.567Z,101561.34
2022-09-01T12:55:47.471Z,101565.09
2022-09-01T12:58:08.267Z,101563.56
2022-09-01T13:00:58.530Z,101549.13
2022-09-01T13:03:29.690Z,101549.91
2022-09-01T13:06:08.865Z,101548.94
2022-09-01T13:08:37.778Z,101548.00
2022-09-01T13:11:08.405Z,101547.59
2022-09-01T13:13:37.569Z,101534.16
2022-09-01T13:16:13.155Z,101534.00
2022-09-01T13:21:35.862Z,101538.72
2022-09-01T13:24:05.358Z,101525.06
2022-09-01T13:26:42.082Z,101523.47
2022-09-01T13:29:10.232Z,101519.06
2022-09-01T13:32:16.601Z,101526.84
2022-09-01T13:37:32.063Z,101521.59
2022-09-01T13:40:01.620Z,101521.69
2022-09-01T13:42:39.295Z,101527.75
2022-09-01T13:45:09.084Z,101517.44
2022-09-01T13:53:27.693Z,101509.91
2022-09-01T13:58:30.256Z,101501.53
2022-09-01T14:01:01.987Z,101504.50
2022-09-01T14:03:32.292Z,101503.84
2022-09-01T14:06:03.195Z,101502.41
2022-09-01T14:08:33.958Z,101507.13
2022-09-01T14:11:04.773Z,101500.34
2022-09-01T14:13:34.398Z,101496.47
2022-09-01T14:16:03.181Z,101490.78
2022-09-01T14:18:36.700Z,101486.63
2022-09-01T14:21:13.545Z,101487.34
2022-09-01T14:23:43.403Z,101480.28
2022-09-01T14:26:13.079Z,101473.88
2022-09-01T14:28:51.686Z,101477.88
2022-09-01T14:31:20.391Z,101478.66
2022-09-01T14:33:49.235Z,101486.00
2022-09-01T14:36:23.408Z,101484.94
2022-09-01T14:38:55.954Z,101474.78
2022-09-01T14:41:26.438Z,101473.28
2022-09-01T14:44:02.816Z,101467.00
2022-09-01T14:46:34.471Z,101467.00
2022-09-01T14:49:04.298Z,101460.16
2022-09-01T14:54:23.222Z,101452.91
2022-09-01T14:59:41.716Z,101469.81
2022-09-01T15:02:21.981Z,101465.63
2022-09-01T15:04:51.356Z,101461.31
2022-09-01T15:07:19.567Z,101452.78
2022-09-01T15:09:49.423Z,101454.41
2022-09-01T15:12:17.598Z,101445.19
2022-09-01T15:14:45.620Z,101443.78
2022-09-01T15:17:14.333Z,101440.88
2022-09-01T15:19:45.405Z,101442.28
2022-09-01T15:22:20.552Z,101442.09
2022-09-01T15:24:49.887Z,101430.25
2022-09-01T15:27:17.999Z,101418.19
2022-09-01T15:29:49.618Z,101425.34
2022-09-01T15:32:20.760Z,101424.09
2022-09-01T15:34:55.859Z,101428.97
2022-09-01T15:37:23.956Z,101429.94
2022-09-01T15:39:53.356Z,101429.94
2022-09-01T15:42:21.851Z,101424.91
2022-09-01T15:44:53.560Z,101435.03
2022-09-01T15:47:21.490Z,101429.41
2022-09-01T15:49:50.031Z,101426.72
2022-09-01T15:52:21.217Z,101430.94
2022-09-01T15:54:49.155Z,101429.50
2022-09-01T15:57:19.218Z,101431.28
2022-09-01T15:59:47.230Z,101434.97
2022-09-01T16:02:21.010Z,101429.19
2022-09-01T16:04:56.805Z,101426.94
2022-09-01T16:07:32.217Z,101414.06
2022-09-01T16:10:01.193Z,101418.34
2022-09-01T16:12:31.568Z,101413.88
2022-09-01T16:14:59.404Z,101409.81
2022-09-01T16:17:42.493Z,101405.28
2022-09-01T16:20:15.995Z,101396.22
2022-09-01T16:22:49.585Z,101402.25
2022-09-01T16:25:31.730Z,101392.59
2022-09-01T16:28:14.672Z,101402.94
2022-09-01T16:30:45.699Z,101387.00
2022-09-01T16:33:20.036Z,101401.78
2022-09-01T16:36:00.515Z,101397.28
2022-09-01T16:38:41.854Z,101387.22
2022-09-01T16:41:30.076Z,101395.91
2022-09-01T16:44:16.886Z,101387.97
2022-09-01T16:46:56.231Z,101390.31
2022-09-01T16:49:31.861Z,101382.38
2022-09-01T16:52:05.573Z,101394.19
2022-09-01T16:55:05.024Z,101387.97
2022-09-01T16:57:43.161Z,101395.06
2022-09-01T17:00:18.862Z,101402.38
2022-09-01T17:02:58.379Z,101398.75
2022-09-01T17:05:31.057Z,101402.69
2022-09-01T17:08:17.725Z,101404.09
2022-09-01T17:10:54.963Z,101393.06
2022-09-01T17:13:28.294Z,101401.44
2022-09-01T17:16:07.998Z,101404.59
2022-09-01T17:18:40.765Z,101394.97
2022-09-01T17:21:14.444Z,101402.34
2022-09-01T17:24:01.630Z,101405.31
2022-09-01T17:26:32.950Z,101398.00
2022-09-01T17:29:12.363Z,101408.84
2022-09-01T17:31:59.835Z,101405.66
2022-09-01T17:34:41.564Z,101403.66
2022-09-01T17:37:34.192Z,101415.28
2022-09-01T17:40:11.595Z,101410.56
2022-09-01T17:42:50.319Z,101396.06
2022-09-01T17:45:28.910Z,101404.22
2022-09-01T17:48:09.004Z,101411.81
2022-09-01T17:50:59.487Z,101412.47
2022-09-01T17:53:43.535Z,101413.19
2022-09-01T17:56:26.809Z,101410.97
2022-09-01T17:59:10.490Z,101408.69
2022-09-01T18:01:47.523Z,101416.94
2022-09-01T18:04:40.664Z,101415.44
2022-09-01T18:07:16.858Z,101416.56
2022-09-01T18:09:50.533Z,101414.34
2022-09-01T18:12:22.258Z,101422.50
2022-09-01T18:14:57.895Z,101417.75
2022-09-01T18:17:34.123Z,101419.88
2022-09-01T18:20:08.826Z,101428.13
2022-09-01T18:22:43.245Z,101417.25
2022-09-01T18:25:19.130Z,101426.25
2022-09-01T18:27:51.315Z,101425.16
2022-09-01T18:30:51.598Z,101423.06
2022-09-01T18:33:26.232Z,101440.50
2022-09-01T18:36:12.738Z,101425.09
2022-09-01T18:38:47.057Z,101439.75
2022-09-01T18:41:33.599Z,101448.84
2022-09-01T18:44:33.567Z,101444.97
2022-09-01T18:47:07.313Z,101446.31
2022-09-01T18:49:45.611Z,101447.47
2022-09-01T18:52:28.856Z,101443.72
2022-09-01T18:55:04.870Z,101445.03
2022-09-01T18:57:37.293Z,101444.81
2022-09-01T19:00:17.792Z,101445.91
2022-09-01T19:03:04.626Z,101441.34
2022-09-01T19:06:00.353Z,101446.03
2022-09-01T19:08:45.559Z,101437.94
2022-09-01T19:11:23.052Z,101447.88
2022-09-01T19:14:00.643Z,101444.13
2022-09-01T19:16:46.298Z,101440.22
2022-09-01T19:19:26.190Z,101430.22
2022-09-01T19:21:56.414Z,101437.41
2022-09-01T19:24:29.368Z,101439.75
2022-09-01T19:27:02.075Z,101446.16
2022-09-01T19:29:36.287Z,101435.25
2022-09-01T19:32:10.097Z,101440.09
2022-09-01T19:34:42.588Z,101436.56
2022-09-01T19:37:13.963Z,101446.75
2022-09-01T19:39:50.857Z,101437.84
2022-09-01T19:42:27.971Z,101447.19
2022-09-01T19:45:12.410Z,101449.56
2022-09-01T19:47:43.098Z,101454.25
2022-09-01T19:50:17.654Z,101459.06
2022-09-01T19:52:56.800Z,101456.19
2022-09-01T19:55:31.911Z,101466.13
2022-09-01T19:58:04.557Z,101460.56
2022-09-01T20:00:42.888Z,101460.97
2022-09-01T20:03:23.467Z,101458.72
2022-09-01T20:05:58.293Z,101459.38
2022-09-01T20:08:34.688Z,101460.69
2022-09-01T20:11:11.091Z,101460.97
2022-09-01T20:14:14.219Z,101461.63
2022-09-01T20:16:48.544Z,101463.69
2022-09-01T20:19:25.203Z,101463.31
2022-09-01T20:21:53.162Z,101470.84
2022-09-01T20:24:31.399Z,101472.88
2022-09-01T20:27:04.105Z,101464.78
2022-09-01T20:29:42.093Z,101460.69
2022-09-01T20:32:27.603Z,101469.75
2022-09-01T20:34:59.844Z,101467.34
2022-09-01T20:37:34.693Z,101472.19
2022-09-01T20:40:07.100Z,101454.16
2022-09-01T20:42:45.461Z,101478.44
2022-09-01T20:45:17.044Z,101468.41
2022-09-01T20:47:50.457Z,101458.38
2022-09-01T20:50:20.147Z,101468.94
2022-09-01T20:53:10.666Z,101464.13
2022-09-01T20:55:49.093Z,101471.09
2022-09-01T20:58:32.838Z,101460.81
2022-09-01T21:01:14.217Z,101475.81
2022-09-01T21:04:02.071Z,101467.19
2022-09-01T21:07:00.736Z,101472.00
2022-09-01T21:09:47.013Z,101462.84
2022-09-01T21:12:32.152Z,101475.56
2022-09-01T21:15:26.490Z,101467.69
2022-09-01T21:18:09.561Z,101472.53
2022-09-01T21:21:07.516Z,101475.69
2022-09-01T21:23:38.854Z,101472.03
2022-09-01T21:26:09.512Z,101445.22
2022-09-01T21:28:42.222Z,101468.97
2022-09-01T21:31:14.065Z,101467.94
2022-09-01T21:33:45.802Z,101461.84
2022-09-01T21:36:13.994Z,101470.09
2022-09-01T21:38:47.745Z,101466.56
2022-09-01T21:41:16.172Z,101464.13
2022-09-01T21:43:47.239Z,101464.91
2022-09-01T21:46:16.899Z,101469.59
2022-09-01T21:48:44.902Z,101470.97
2022-09-01T21:51:19.267Z,101471.34
2022-09-01T21:53:47.324Z,101472.72
2022-09-01T21:56:16.613Z,101475.00
2022-09-01T21:58:44.806Z,101444.69
2022-09-01T22:01:22.613Z,101481.06
2022-09-01T22:03:51.265Z,101426.13
2022-09-01T22:06:19.501Z,101455.22
2022-09-01T22:08:48.067Z,101472.44
2022-09-01T22:11:17.866Z,101470.50
2022-09-01T22:13:48.850Z,101487.66
2022-09-01T22:16:23.450Z,101477.09
2022-09-01T22:18:53.943Z,101481.03
2022-09-01T22:21:23.115Z,101455.06
2022-09-01T22:23:52.082Z,101477.22
2022-09-01T22:26:24.585Z,101463.47
2022-09-01T22:28:55.229Z,101442.09
2022-09-01T22:31:30.818Z,101471.81
2022-09-01T22:34:02.428Z,101459.84
2022-09-01T22:36:35.044Z,101420.69
2022-09-01T22:39:07.386Z,101466.50
2022-09-01T22:41:36.869Z,101456.78
2022-09-01T22:44:05.534Z,101445.09
2022-09-01T22:46:35.950Z,101472.84
2022-09-01T22:49:06.657Z,101471.03
2022-09-01T22:51:36.293Z,101465.28
2022-09-01T22:54:04.474Z,101467.22
2022-09-01T22:56:35.960Z,101468.72
2022-09-01T22:59:07.745Z,101466.69
2022-09-01T23:01:38.733Z,101463.41
2022-09-01T23:04:09.940Z,101468.97
2022-09-01T23:06:41.601Z,101470.34
2022-09-01T23:09:10.204Z,101469.31
2022-09-01T23:11:44.194Z,101456.81
2022-09-01T23:14:12.882Z,101472.69
2022-09-01T23:16:41.789Z,101465.34
2022-09-01T23:19:12.158Z,101464.31
2022-09-01T23:21:40.546Z,101448.50
2022-09-01T23:24:09.306Z,101460.09
2022-09-01T23:26:37.540Z,101465.00
2022-09-01T23:29:07.038Z,101462.16
2022-09-01T23:31:38.467Z,101456.84
2022-09-01T23:34:09.361Z,101459.97
2022-09-01T23:36:39.486Z,101465.41
2022-09-01T23:39:08.384Z,101458.28
2022-09-01T23:41:40.165Z,101445.75
2022-09-01T23:44:14.654Z,101450.88
2022-09-01T23:46:45.623Z,101458.50
2022-09-01T23:49:16.692Z,101450.47
2022-09-01T23:51:48.741Z,101450.81
2022-09-01T23:54:18.028Z,101457.69
2022-09-01T23:56:46.835Z,101446.38
2022-09-01T23:59:16.256Z,101455.97
